sensor_id;sensor_type;location;lat;lon;timestamp;pressure;altitude;pressure_sealevel;temperature;humidity
45040;BME280;30778;53.574;7.770;2023-05-13T00:01:47;102235.66;;;10.13;45.34
45040;BME280;30778;53.574;7.770;2023-05-13T00:04:12;102233.06;;;10.11;45.46
45040;BME280;30778;53.574;7.770;2023-05-13T00:06:38;102222.53;;;10.14;45.57
45040;BME280;30778;53.574;7.770;2023-05-13T00:09:03;102226.91;;;10.14;45.49
45040;BME280;30778;53.574;7.770;2023-05-13T00:11:29;102221.91;;;10.00;46.23
45040;BME280;30778;53.574;7.770;2023-05-13T00:13:54;102229.06;;;9.90;46.50
45040;BME280;30778;53.574;7.770;2023-05-13T00:16:20;102229.16;;;9.83;46.92
45040;BME280;30778;53.574;7.770;2023-05-13T00:18:48;102231.81;;;9.79;46.91
45040;BME280;30778;53.574;7.770;2023-05-13T00:21:14;102222.28;;;9.74;47.44
45040;BME280;30778;53.574;7.770;2023-05-13T00:23:39;102224.81;;;9.78;47.29
45040;BME280;30778;53.574;7.770;2023-05-13T00:26:05;102224.94;;;9.72;47.32
45040;BME280;30778;53.574;7.770;2023-05-13T00:28:30;102228.41;;;9.71;47.31
45040;BME280;30778;53.574;7.770;2023-05-13T00:30:56;102224.16;;;9.66;47.59
45040;BME280;30778;53.574;7.770;2023-05-13T00:33:21;102225.94;;;9.62;47.82
45040;BME280;30778;53.574;7.770;2023-05-13T00:35:47;102226.16;;;9.47;47.74
45040;BME280;30778;53.574;7.770;2023-05-13T00:38:12;102222.50;;;9.58;47.80
45040;BME280;30778;53.574;7.770;2023-05-13T00:40:38;102221.66;;;9.56;48.21
45040;BME280;30778;53.574;7.770;2023-05-13T00:43:04;102228.69;;;9.54;48.28
45040;BME280;30778;53.574;7.770;2023-05-13T00:45:30;102229.41;;;9.64;47.50
45040;BME280;30778;53.574;7.770;2023-05-13T00:47:57;102229.53;;;9.55;47.91
45040;BME280;30778;53.574;7.770;2023-05-13T00:50:23;102225.44;;;9.34;48.50
45040;BME280;30778;53.574;7.770;2023-05-13T00:52:49;102222.88;;;9.32;48.69
45040;BME280;30778;53.574;7.770;2023-05-13T00:55:16;102225.53;;;9.29;48.79
45040;BME280;30778;53.574;7.770;2023-05-13T00:57:41;102227.34;;;9.24;49.03
45040;BME280;30778;53.574;7.770;2023-05-13T01:00:08;102218.66;;;9.24;49.24
45040;BME280;30778;53.574;7.770;2023-05-13T01:02:56;102220.41;;;9.20;49.35
45040;BME280;30778;53.574;7.770;2023-05-13T01:08:50;102230.31;;;8.95;50.45
45040;BME280;30778;53.574;7.770;2023-05-13T01:11:25;102223.81;;;9.27;49.20
45040;BME280;30778;53.574;7.770;2023-05-13T01:14:13;102220.34;;;9.26;49.78
45040;BME280;30778;53.574;7.770;2023-05-13T01:19:30;102223.94;;;9.16;49.60
45040;BME280;30778;53.574;7.770;2023-05-13T01:21:59;102226.75;;;9.01;50.02
45040;BME280;30778;53.574;7.770;2023-05-13T01:24:25;102219.84;;;8.96;50.24
45040;BME280;30778;53.574;7.770;2023-05-13T01:26:51;102220.78;;;8.89;50.68
45040;BME280;30778;53.574;7.770;2023-05-13T01:29:17;102226.09;;;8.83;50.64
45040;BME280;30778;53.574;7.770;2023-05-13T01:31:44;102227.97;;;8.72;51.19
45040;BME280;30778;53.574;7.770;2023-05-13T01:34:11;102230.41;;;8.84;51.02
45040;BME280;30778;53.574;7.770;2023-05-13T01:36:38;102233.75;;;8.95;50.63
45040;BME280;30778;53.574;7.770;2023-05-13T01:39:05;102229.41;;;8.97;50.30
45040;BME280;30778;53.574;7.770;2023-05-13T01:41:31;102235.47;;;8.98;50.57
45040;BME280;30778;53.574;7.770;2023-05-13T01:43:58;102233.75;;;8.97;50.58
45040;BME280;30778;53.574;7.770;2023-05-13T01:46:23;102238.91;;;9.00;50.41
45040;BME280;30778;53.574;7.770;2023-05-13T01:48:49;102241.53;;;9.02;50.20
45040;BME280;30778;53.574;7.770;2023-05-13T01:51:14;102231.31;;;8.83;50.86
45040;BME280;30778;53.574;7.770;2023-05-13T01:53:40;102234.72;;;8.90;50.46
45040;BME280;30778;53.574;7.770;2023-05-13T01:56:08;102231.16;;;8.95;50.74
45040;BME280;30778;53.574;7.770;2023-05-13T01:58:34;102225.97;;;8.92;50.45
45040;BME280;30778;53.574;7.770;2023-05-13T02:01:00;102226.19;;;8.74;50.89
45040;BME280;30778;53.574;7.770;2023-05-13T02:03:25;102226.19;;;8.74;50.83
45040;BME280;30778;53.574;7.770;2023-05-13T02:05:51;102224.44;;;8.74;50.85
45040;BME280;30778;53.574;7.770;2023-05-13T02:08:16;102229.72;;;8.64;51.16
45040;BME280;30778;53.574;7.770;2023-05-13T02:10:42;102227.00;;;8.77;50.57
45040;BME280;30778;53.574;7.770;2023-05-13T02:13:08;102225.31;;;8.75;50.64
45040;BME280;30778;53.574;7.770;2023-05-13T02:15:33;102224.47;;;8.67;51.20
45040;BME280;30778;53.574;7.770;2023-05-13T02:17:58;102220.16;;;8.67;51.09
45040;BME280;30778;53.574;7.770;2023-05-13T02:20:24;102223.63;;;8.66;51.12
45040;BME280;30778;53.574;7.770;2023-05-13T02:22:50;102227.97;;;8.64;51.37
45040;BME280;30778;53.574;7.770;2023-05-13T02:25:16;102226.31;;;8.59;51.32
45040;BME280;30778;53.574;7.770;2023-05-13T02:27:41;102221.91;;;8.64;51.14
45040;BME280;30778;53.574;7.770;2023-05-13T02:30:07;102225.47;;;8.53;51.32
45040;BME280;30778;53.574;7.770;2023-05-13T02:32:33;102230.69;;;8.55;51.53
45040;BME280;30778;53.574;7.770;2023-05-13T02:34:58;102220.31;;;8.52;51.55
45040;BME280;30778;53.574;7.770;2023-05-13T02:37:24;102210.75;;;8.52;51.43
45040;BME280;30778;53.574;7.770;2023-05-13T02:39:57;102219.41;;;8.51;51.91
45040;BME280;30778;53.574;7.770;2023-05-13T02:42:23;102218.47;;;8.62;51.53
45040;BME280;30778;53.574;7.770;2023-05-13T02:44:48;102227.22;;;8.51;51.63
45040;BME280;30778;53.574;7.770;2023-05-13T02:47:15;102226.44;;;8.46;51.85
45040;BME280;30778;53.574;7.770;2023-05-13T02:49:40;102221.25;;;8.43;51.83
45040;BME280;30778;53.574;7.770;2023-05-13T02:52:06;102222.16;;;8.41;52.06
45040;BME280;30778;53.574;7.770;2023-05-13T02:54:34;102220.44;;;8.36;52.16
45040;BME280;30778;53.574;7.770;2023-05-13T02:56:59;102219.59;;;8.34;52.41
45040;BME280;30778;53.574;7.770;2023-05-13T02:59:25;102217.09;;;8.25;52.61
45040;BME280;30778;53.574;7.770;2023-05-13T03:01:50;102219.66;;;8.27;52.91
45040;BME280;30778;53.574;7.770;2023-05-13T03:04:16;102220.44;;;8.36;52.39
45040;BME280;30778;53.574;7.770;2023-05-13T03:06:41;102221.31;;;8.37;52.09
45040;BME280;30778;53.574;7.770;2023-05-13T03:09:06;102226.47;;;8.40;51.60
45040;BME280;30778;53.574;7.770;2023-05-13T03:11:32;102225.84;;;8.17;52.71
45040;BME280;30778;53.574;7.770;2023-05-13T03:13:57;102231.69;;;8.40;52.08
45040;BME280;30778;53.574;7.770;2023-05-13T03:16:23;102233.38;;;8.47;51.65
45040;BME280;30778;53.574;7.770;2023-05-13T03:18:48;102233.53;;;8.32;52.55
45040;BME280;30778;53.574;7.770;2023-05-13T03:21:15;102226.56;;;8.34;51.99
45040;BME280;30778;53.574;7.770;2023-05-13T03:23:41;102238.78;;;8.27;52.31
45040;BME280;30778;53.574;7.770;2023-05-13T03:26:07;102229.22;;;8.25;52.50
45040;BME280;30778;53.574;7.770;2023-05-13T03:28:32;102229.22;;;8.26;52.32
45040;BME280;30778;53.574;7.770;2023-05-13T03:30:59;102221.41;;;8.25;52.14
45040;BME280;30778;53.574;7.770;2023-05-13T03:33:26;102226.78;;;8.06;53.10
45040;BME280;30778;53.574;7.770;2023-05-13T03:35:54;102229.28;;;8.15;52.43
45040;BME280;30778;53.574;7.770;2023-05-13T03:38:24;102233.53;;;8.29;52.15
45040;BME280;30778;53.574;7.770;2023-05-13T03:40:50;102239.63;;;8.28;52.01
45040;BME280;30778;53.574;7.770;2023-05-13T03:43:16;102226.66;;;8.20;52.27
45040;BME280;30778;53.574;7.770;2023-05-13T03:45:45;102237.09;;;8.17;52.20
45040;BME280;30778;53.574;7.770;2023-05-13T03:48:16;102241.41;;;8.20;52.42
45040;BME280;30778;53.574;7.770;2023-05-13T03:50:41;102230.09;;;8.24;52.33
45040;BME280;30778;53.574;7.770;2023-05-13T03:53:06;102233.66;;;8.15;52.86
45040;BME280;30778;53.574;7.770;2023-05-13T03:55:34;102239.66;;;8.23;52.60
45040;BME280;30778;53.574;7.770;2023-05-13T03:58:13;102236.22;;;8.21;53.08
45040;BME280;30778;53.574;7.770;2023-05-13T04:00:40;102242.22;;;8.26;52.58
45040;BME280;30778;53.574;7.770;2023-05-13T04:03:06;102238.59;;;8.47;52.22
45040;BME280;30778;53.574;7.770;2023-05-13T04:05:32;102238.59;;;8.47;52.24
45040;BME280;30778;53.574;7.770;2023-05-13T04:07:57;102238.59;;;8.47;52.31
45040;BME280;30778;53.574;7.770;2023-05-13T04:10:23;102241.16;;;8.50;52.41
45040;BME280;30778;53.574;7.770;2023-05-13T04:12:49;102246.31;;;8.56;52.24
45040;BME280;30778;53.574;7.770;2023-05-13T04:15:15;102245.38;;;8.65;51.88
45040;BME280;30778;53.574;7.770;2023-05-13T04:17:40;102240.22;;;8.57;52.05
45040;BME280;30778;53.574;7.770;2023-05-13T04:20:06;102242.59;;;8.81;52.13
45040;BME280;30778;53.574;7.770;2023-05-13T04:22:33;102247.75;;;8.87;51.92
45040;BME280;30778;53.574;7.770;2023-05-13T04:24:59;102244.25;;;8.89;52.39
45040;BME280;30778;53.574;7.770;2023-05-13T04:27:25;102247.75;;;8.88;52.60
45040;BME280;30778;53.574;7.770;2023-05-13T04:29:56;102253.59;;;9.09;52.28
45040;BME280;30778;53.574;7.770;2023-05-13T04:32:23;102258.69;;;9.21;52.13
45040;BME280;30778;53.574;7.770;2023-05-13T04:34:52;102260.47;;;9.16;52.45
45040;BME280;30778;53.574;7.770;2023-05-13T04:37:18;102262.84;;;9.36;51.86
45040;BME280;30778;53.574;7.770;2023-05-13T04:39:45;102258.47;;;9.36;52.13
45040;BME280;30778;53.574;7.770;2023-05-13T04:42:15;102262.78;;;9.40;51.97
45040;BME280;30778;53.574;7.770;2023-05-13T04:44:41;102265.94;;;9.66;51.67
45040;BME280;30778;53.574;7.770;2023-05-13T04:47:07;102268.03;;;9.39;52.21
45040;BME280;30778;53.574;7.770;2023-05-13T04:49:33;102274.63;;;9.66;51.57
45040;BME280;30778;53.574;7.770;2023-05-13T04:52:02;102279.72;;;9.75;51.53
45040;BME280;30778;53.574;7.770;2023-05-13T04:54:28;102276.16;;;9.83;50.96
45040;BME280;30778;53.574;7.770;2023-05-13T04:56:54;102272.53;;;9.93;51.10
45040;BME280;30778;53.574;7.770;2023-05-13T04:59:20;102279.31;;;10.05;50.95
45040;BME280;30778;53.574;7.770;2023-05-13T05:01:46;102277.59;;;10.56;49.40
45040;BME280;30778;53.574;7.770;2023-05-13T05:04:11;102270.81;;;10.96;48.61
45040;BME280;30778;53.574;7.770;2023-05-13T05:06:37;102279.38;;;11.04;48.41
45040;BME280;30778;53.574;7.770;2023-05-13T05:09:03;102276.19;;;12.47;45.57
45040;BME280;30778;53.574;7.770;2023-05-13T05:11:29;102274.97;;;13.54;43.42
45040;BME280;30778;53.574;7.770;2023-05-13T05:13:55;102276.06;;;14.30;40.36
45040;BME280;30778;53.574;7.770;2023-05-13T05:16:21;102272.88;;;15.22;40.14
45040;BME280;30778;53.574;7.770;2023-05-13T05:18:47;102281.09;;;15.13;39.35
45040;BME280;30778;53.574;7.770;2023-05-13T05:21:14;102281.41;;;15.74;37.10
45040;BME280;30778;53.574;7.770;2023-05-13T05:23:42;102278.34;;;16.50;37.13
45040;BME280;30778;53.574;7.770;2023-05-13T05:26:08;102287.81;;;17.34;35.35
45040;BME280;30778;53.574;7.770;2023-05-13T05:28:35;102286.63;;;17.60;34.63
45040;BME280;30778;53.574;7.770;2023-05-13T05:31:02;102281.78;;;18.24;33.96
45040;BME280;30778;53.574;7.770;2023-05-13T05:33:30;102286.94;;;18.08;33.87
45040;BME280;30778;53.574;7.770;2023-05-13T05:35:55;102288.94;;;18.57;32.48
45040;BME280;30778;53.574;7.770;2023-05-13T05:38:22;102278.31;;;19.07;31.71
45040;BME280;30778;53.574;7.770;2023-05-13T05:40:50;102288.09;;;18.89;31.97
45040;BME280;30778;53.574;7.770;2023-05-13T05:43:16;102282.75;;;18.91;31.73
45040;BME280;30778;53.574;7.770;2023-05-13T05:45:42;102292.56;;;19.38;31.27
45040;BME280;30778;53.574;7.770;2023-05-13T05:48:12;102286.03;;;18.79;32.01
45040;BME280;30778;53.574;7.770;2023-05-13T05:50:39;102287.66;;;18.81;32.56
45040;BME280;30778;53.574;7.770;2023-05-13T05:53:07;102283.09;;;19.01;31.64
45040;BME280;30778;53.574;7.770;2023-05-13T05:55:35;102290.94;;;18.69;31.89
45040;BME280;30778;53.574;7.770;2023-05-13T05:58:04;102289.00;;;19.55;30.76
45040;BME280;30778;53.574;7.770;2023-05-13T06:00:32;102290.03;;;18.35;32.17
45040;BME280;30778;53.574;7.770;2023-05-13T06:02:58;102292.44;;;18.40;32.60
45040;BME280;30778;53.574;7.770;2023-05-13T06:05:23;102296.63;;;18.26;32.54
45040;BME280;30778;53.574;7.770;2023-05-13T06:07:50;102288.88;;;18.92;31.50
45040;BME280;30778;53.574;7.770;2023-05-13T06:10:16;102294.63;;;19.00;31.42
45040;BME280;30778;53.574;7.770;2023-05-13T06:12:42;102288.63;;;19.61;30.34
45040;BME280;30778;53.574;7.770;2023-05-13T06:15:08;102290.75;;;20.02;30.39
45040;BME280;30778;53.574;7.770;2023-05-13T06:17:37;102282.94;;;19.99;29.57
45040;BME280;30778;53.574;7.770;2023-05-13T06:20:05;102283.19;;;20.41;29.89
45040;BME280;30778;53.574;7.770;2023-05-13T06:22:30;102290.13;;;20.43;29.40
45040;BME280;30778;53.574;7.770;2023-05-13T06:24:56;102286.00;;;21.11;28.17
45040;BME280;30778;53.574;7.770;2023-05-13T06:27:22;102278.94;;;21.53;27.68
45040;BME280;30778;53.574;7.770;2023-05-13T06:29:47;102278.66;;;21.97;25.85
45040;BME280;30778;53.574;7.770;2023-05-13T06:32:13;102280.44;;;22.11;26.28
45040;BME280;30778;53.574;7.770;2023-05-13T06:34:40;102288.41;;;22.90;25.47
45040;BME280;30778;53.574;7.770;2023-05-13T06:37:13;102291.59;;;22.56;25.56
45040;BME280;30778;53.574;7.770;2023-05-13T06:39:39;102284.53;;;22.43;26.40
45040;BME280;30778;53.574;7.770;2023-05-13T06:42:05;102290.34;;;22.88;25.44
45040;BME280;30778;53.574;7.770;2023-05-13T06:44:36;102296.69;;;22.34;25.79
45040;BME280;30778;53.574;7.770;2023-05-13T06:47:05;102285.88;;;21.83;26.22
45040;BME280;30778;53.574;7.770;2023-05-13T06:49:34;102296.16;;;22.02;26.19
45040;BME280;30778;53.574;7.770;2023-05-13T06:51:59;102295.66;;;21.55;27.58
45040;BME280;30778;53.574;7.770;2023-05-13T06:54:25;102290.91;;;22.14;27.34
45040;BME280;30778;53.574;7.770;2023-05-13T06:56:53;102289.31;;;22.25;25.91
45040;BME280;30778;53.574;7.770;2023-05-13T06:59:18;102293.41;;;22.03;26.73
45040;BME280;30778;53.574;7.770;2023-05-13T07:01:46;102289.22;;;22.65;26.77
45040;BME280;30778;53.574;7.770;2023-05-13T07:04:12;102280.78;;;23.59;24.59
45040;BME280;30778;53.574;7.770;2023-05-13T07:06:37;102282.81;;;22.29;25.54
45040;BME280;30778;53.574;7.770;2023-05-13T07:09:03;102288.53;;;22.10;26.77
45040;BME280;30778;53.574;7.770;2023-05-13T07:11:29;102284.75;;;22.52;26.00
45040;BME280;30778;53.574;7.770;2023-05-13T07:13:55;102278.53;;;23.16;24.34
45040;BME280;30778;53.574;7.770;2023-05-13T07:16:20;102287.31;;;24.03;24.37
45040;BME280;30778;53.574;7.770;2023-05-13T07:18:46;102288.34;;;23.89;23.89
45040;BME280;30778;53.574;7.770;2023-05-13T07:21:15;102287.78;;;23.97;24.23
45040;BME280;30778;53.574;7.770;2023-05-13T07:23:41;102280.31;;;24.49;23.90
45040;BME280;30778;53.574;7.770;2023-05-13T07:26:06;102286.97;;;24.88;23.21
45040;BME280;30778;53.574;7.770;2023-05-13T07:28:32;102281.81;;;24.98;23.34
45040;BME280;30778;53.574;7.770;2023-05-13T07:30:58;102276.84;;;25.59;22.61
45040;BME280;30778;53.574;7.770;2023-05-13T07:33:23;102282.03;;;25.72;22.30
45040;BME280;30778;53.574;7.770;2023-05-13T07:35:49;102285.31;;;26.08;22.52
45040;BME280;30778;53.574;7.770;2023-05-13T07:38:14;102287.97;;;26.50;21.77
45040;BME280;30778;53.574;7.770;2023-05-13T07:40:40;102284.44;;;25.75;22.30
45040;BME280;30778;53.574;7.770;2023-05-13T07:43:05;102281.97;;;25.83;22.47
45040;BME280;30778;53.574;7.770;2023-05-13T07:45:31;102283.47;;;26.08;22.06
45040;BME280;30778;53.574;7.770;2023-05-13T07:47:57;102276.81;;;26.76;21.35
45040;BME280;30778;53.574;7.770;2023-05-13T07:50:22;102280.63;;;26.52;22.23
45040;BME280;30778;53.574;7.770;2023-05-13T07:52:48;102283.47;;;26.08;22.46
45040;BME280;30778;53.574;7.770;2023-05-13T07:55:16;102280.00;;;26.39;21.51
45040;BME280;30778;53.574;7.770;2023-05-13T07:57:42;102280.06;;;26.69;21.77
45040;BME280;30778;53.574;7.770;2023-05-13T08:00:08;102282.06;;;26.87;21.08
45040;BME280;30778;53.574;7.770;2023-05-13T08:02:41;102288.13;;;26.27;21.97
45040;BME280;30778;53.574;7.770;2023-05-13T08:05:07;102286.50;;;26.04;21.31
45040;BME280;30778;53.574;7.770;2023-05-13T08:07:35;102291.69;;;25.96;22.35
45040;BME280;30778;53.574;7.770;2023-05-13T08:10:01;102284.31;;;26.82;20.70
45040;BME280;30778;53.574;7.770;2023-05-13T08:12:26;102292.69;;;26.16;22.60
45040;BME280;30778;53.574;7.770;2023-05-13T08:14:52;102287.53;;;26.45;22.11
45040;BME280;30778;53.574;7.770;2023-05-13T08:17:17;102292.63;;;25.95;22.17
45040;BME280;30778;53.574;7.770;2023-05-13T08:19:44;102291.59;;;26.49;21.36
45040;BME280;30778;53.574;7.770;2023-05-13T08:22:10;102294.31;;;26.70;21.27
45040;BME280;30778;53.574;7.770;2023-05-13T08:24:36;102288.03;;;26.60;21.38
45040;BME280;30778;53.574;7.770;2023-05-13T08:27:01;102280.72;;;26.62;20.88
45040;BME280;30778;53.574;7.770;2023-05-13T08:29:27;102281.56;;;26.41;22.00
45040;BME280;30778;53.574;7.770;2023-05-13T08:31:54;102276.84;;;26.55;21.72
45040;BME280;30778;53.574;7.770;2023-05-13T08:34:19;102275.72;;;26.57;22.02
45040;BME280;30778;53.574;7.770;2023-05-13T08:36:45;102278.28;;;26.38;22.59
45040;BME280;30778;53.574;7.770;2023-05-13T08:39:10;102277.00;;;26.84;22.36
45040;BME280;30778;53.574;7.770;2023-05-13T08:41:36;102277.59;;;26.15;22.14
45040;BME280;30778;53.574;7.770;2023-05-13T08:44:08;102272.09;;;25.63;23.66
45040;BME280;30778;53.574;7.770;2023-05-13T08:46:35;102282.69;;;26.18;23.15
45040;BME280;30778;53.574;7.770;2023-05-13T08:49:02;102287.69;;;26.53;22.51
45040;BME280;30778;53.574;7.770;2023-05-13T08:51:28;102289.78;;;25.75;22.07
45040;BME280;30778;53.574;7.770;2023-05-13T08:53:54;102292.69;;;25.40;23.08
45040;BME280;30778;53.574;7.770;2023-05-13T08:56:20;102294.78;;;26.12;22.66
45040;BME280;30778;53.574;7.770;2023-05-13T08:58:49;102295.75;;;25.24;23.61
45040;BME280;30778;53.574;7.770;2023-05-13T09:01:15;102293.31;;;24.53;24.32
45040;BME280;30778;53.574;7.770;2023-05-13T09:03:51;102290.16;;;24.71;24.84
45040;BME280;30778;53.574;7.770;2023-05-13T09:06:18;102287.63;;;25.03;23.86
45040;BME280;30778;53.574;7.770;2023-05-13T09:08:44;102287.25;;;24.96;24.12
45040;BME280;30778;53.574;7.770;2023-05-13T09:11:10;102290.91;;;24.26;25.92
45040;BME280;30778;53.574;7.770;2023-05-13T09:13:35;102290.53;;;23.71;26.39
45040;BME280;30778;53.574;7.770;2023-05-13T09:16:01;102290.94;;;23.78;26.11
45040;BME280;30778;53.574;7.770;2023-05-13T09:18:29;102288.75;;;23.48;26.35
45040;BME280;30778;53.574;7.770;2023-05-13T09:20:56;102285.78;;;23.14;26.87
45040;BME280;30778;53.574;7.770;2023-05-13T09:23:22;102288.63;;;22.74;27.53
45040;BME280;30778;53.574;7.770;2023-05-13T09:25:48;102286.25;;;22.56;28.00
45040;BME280;30778;53.574;7.770;2023-05-13T09:28:14;102290.50;;;22.46;27.50
45040;BME280;30778;53.574;7.770;2023-05-13T09:30:40;102279.75;;;22.48;27.49
45040;BME280;30778;53.574;7.770;2023-05-13T09:33:17;102271.44;;;22.00;27.70
45040;BME280;30778;53.574;7.770;2023-05-13T09:35:53;102268.56;;;22.55;26.55
45040;BME280;30778;53.574;7.770;2023-05-13T09:40:53;102266.78;;;23.18;25.04
45040;BME280;30778;53.574;7.770;2023-05-13T09:43:24;102273.28;;;22.77;25.82
45040;BME280;30778;53.574;7.770;2023-05-13T09:45:53;102263.00;;;22.33;25.49
45040;BME280;30778;53.574;7.770;2023-05-13T09:48:24;102272.09;;;22.03;26.45
45040;BME280;30778;53.574;7.770;2023-05-13T09:50:50;102265.78;;;21.91;27.30
45040;BME280;30778;53.574;7.770;2023-05-13T09:53:17;102266.22;;;21.71;26.50
45040;BME280;30778;53.574;7.770;2023-05-13T09:55:50;102270.88;;;22.22;26.33
45040;BME280;30778;53.574;7.770;2023-05-13T09:58:16;102270.69;;;22.63;26.83
45040;BME280;30778;53.574;7.770;2023-05-13T10:00:43;102260.44;;;22.95;26.36
45040;BME280;30778;53.574;7.770;2023-05-13T10:03:09;102264.81;;;22.58;26.62
45040;BME280;30778;53.574;7.770;2023-05-13T10:05:35;102261.06;;;22.22;27.69
45040;BME280;30778;53.574;7.770;2023-05-13T10:08:01;102256.81;;;22.20;27.79
45040;BME280;30778;53.574;7.770;2023-05-13T10:10:29;102255.63;;;23.00;27.66
45040;BME280;30778;53.574;7.770;2023-05-13T10:12:57;102250.59;;;23.34;26.32
45040;BME280;30778;53.574;7.770;2023-05-13T10:15:23;102261.59;;;23.17;26.81
45040;BME280;30778;53.574;7.770;2023-05-13T10:17:49;102262.31;;;23.56;26.29
45040;BME280;30778;53.574;7.770;2023-05-13T10:20:15;102253.31;;;23.46;26.55
45040;BME280;30778;53.574;7.770;2023-05-13T10:22:41;102250.94;;;23.04;25.51
45040;BME280;30778;53.574;7.770;2023-05-13T10:25:08;102251.59;;;23.45;26.92
45040;BME280;30778;53.574;7.770;2023-05-13T10:27:34;102252.28;;;23.35;26.42
45040;BME280;30778;53.574;7.770;2023-05-13T10:30:00;102257.84;;;23.32;25.58
45040;BME280;30778;53.574;7.770;2023-05-13T10:32:28;102249.75;;;23.21;24.85
45040;BME280;30778;53.574;7.770;2023-05-13T10:35:10;102256.69;;;23.11;26.58
45040;BME280;30778;53.574;7.770;2023-05-13T10:37:59;102246.84;;;21.96;29.04
45040;BME280;30778;53.574;7.770;2023-05-13T10:43:21;102251.72;;;22.55;27.96
45040;BME280;30778;53.574;7.770;2023-05-13T10:45:55;102251.53;;;22.71;27.58
45040;BME280;30778;53.574;7.770;2023-05-13T10:48:23;102242.28;;;23.13;27.53
45040;BME280;30778;53.574;7.770;2023-05-13T10:51:00;102244.06;;;22.76;28.46
45040;BME280;30778;53.574;7.770;2023-05-13T10:53:36;102249.28;;;22.39;28.26
45040;BME280;30778;53.574;7.770;2023-05-13T10:56:02;102257.13;;;22.15;28.67
45040;BME280;30778;53.574;7.770;2023-05-13T10:58:33;102252.78;;;22.14;29.08
45040;BME280;30778;53.574;7.770;2023-05-13T11:01:26;102241.28;;;22.39;28.38
45040;BME280;30778;53.574;7.770;2023-05-13T11:03:57;102246.69;;;22.25;27.73
45040;BME280;30778;53.574;7.770;2023-05-13T11:06:36;102252.44;;;21.79;28.28
45040;BME280;30778;53.574;7.770;2023-05-13T11:09:12;102249.63;;;21.67;28.23
45040;BME280;30778;53.574;7.770;2023-05-13T11:11:38;102241.63;;;21.94;27.63
45040;BME280;30778;53.574;7.770;2023-05-13T11:14:14;102241.63;;;22.47;28.18
45040;BME280;30778;53.574;7.770;2023-05-13T11:16:51;102240.22;;;22.54;27.12
45040;BME280;30778;53.574;7.770;2023-05-13T11:19:29;102234.00;;;22.67;25.80
45040;BME280;30778;53.574;7.770;2023-05-13T11:22:09;102235.41;;;22.59;27.91
45040;BME280;30778;53.574;7.770;2023-05-13T11:24:35;102230.38;;;22.93;24.06
45040;BME280;30778;53.574;7.770;2023-05-13T11:27:15;102219.94;;;22.90;23.75
45040;BME280;30778;53.574;7.770;2023-05-13T11:29:48;102227.19;;;23.01;23.94
45040;BME280;30778;53.574;7.770;2023-05-13T11:32:46;102219.75;;;23.30;22.92
45040;BME280;30778;53.574;7.770;2023-05-13T11:35:30;102225.19;;;22.79;24.17
45040;BME280;30778;53.574;7.770;2023-05-13T11:37:58;102221.38;;;22.70;23.78
45040;BME280;30778;53.574;7.770;2023-05-13T11:40:28;102222.63;;;22.90;24.31
45040;BME280;30778;53.574;7.770;2023-05-13T11:42:54;102223.38;;;22.41;25.53
45040;BME280;30778;53.574;7.770;2023-05-13T11:45:21;102209.28;;;22.65;24.84
45040;BME280;30778;53.574;7.770;2023-05-13T11:47:48;102218.88;;;22.93;24.86
45040;BME280;30778;53.574;7.770;2023-05-13T11:50:27;102216.91;;;23.45;25.20
45040;BME280;30778;53.574;7.770;2023-05-13T11:52:57;102213.44;;;23.18;24.75
45040;BME280;30778;53.574;7.770;2023-05-13T11:55:31;102206.06;;;23.59;24.47
45040;BME280;30778;53.574;7.770;2023-05-13T11:57:57;102212.41;;;23.21;25.47
45040;BME280;30778;53.574;7.770;2023-05-13T12:00:24;102216.56;;;22.37;26.92
45040;BME280;30778;53.574;7.770;2023-05-13T12:02:50;102221.44;;;22.94;25.61
45040;BME280;30778;53.574;7.770;2023-05-13T12:05:19;102214.41;;;23.30;25.74
45040;BME280;30778;53.574;7.770;2023-05-13T12:07:44;102217.09;;;23.30;24.98
45040;BME280;30778;53.574;7.770;2023-05-13T12:10:10;102216.63;;;22.99;26.86
45040;BME280;30778;53.574;7.770;2023-05-13T12:12:40;102209.63;;;22.73;26.78
45040;BME280;30778;53.574;7.770;2023-05-13T12:15:17;102216.34;;;22.66;26.90
45040;BME280;30778;53.574;7.770;2023-05-13T12:17:43;102202.03;;;23.29;27.08
45040;BME280;30778;53.574;7.770;2023-05-13T12:20:17;102212.09;;;22.50;28.03
45040;BME280;30778;53.574;7.770;2023-05-13T12:30:38;102211.09;;;23.27;28.63
45040;BME280;30778;53.574;7.770;2023-05-13T12:33:05;102207.31;;;23.42;28.44
45040;BME280;30778;53.574;7.770;2023-05-13T12:35:31;102221.09;;;23.60;28.54
45040;BME280;30778;53.574;7.770;2023-05-13T12:38:01;102217.50;;;23.24;27.58
45040;BME280;30778;53.574;7.770;2023-05-13T12:40:27;102209.97;;;22.68;27.36
45040;BME280;30778;53.574;7.770;2023-05-13T12:42:57;102211.31;;;23.24;28.28
45040;BME280;30778;53.574;7.770;2023-05-13T12:45:27;102206.31;;;23.67;27.32
45040;BME280;30778;53.574;7.770;2023-05-13T12:47:53;102202.78;;;23.18;27.66
45040;BME280;30778;53.574;7.770;2023-05-13T12:50:19;102202.50;;;22.61;29.43
45040;BME280;30778;53.574;7.770;2023-05-13T12:52:45;102208.66;;;22.74;29.19
45040;BME280;30778;53.574;7.770;2023-05-13T12:55:10;102211.34;;;22.23;30.70
45040;BME280;30778;53.574;7.770;2023-05-13T12:57:38;102211.03;;;22.14;29.66
45040;BME280;30778;53.574;7.770;2023-05-13T13:00:05;102205.19;;;23.10;28.41
45040;BME280;30778;53.574;7.770;2023-05-13T13:02:30;102205.22;;;22.97;28.08
45040;BME280;30778;53.574;7.770;2023-05-13T13:04:55;102205.34;;;23.33;28.66
45040;BME280;30778;53.574;7.770;2023-05-13T13:07:23;102198.88;;;22.74;29.24
45040;BME280;30778;53.574;7.770;2023-05-13T13:09:49;102194.44;;;22.99;28.96
45040;BME280;30778;53.574;7.770;2023-05-13T13:12:15;102206.97;;;22.47;30.36
45040;BME280;30778;53.574;7.770;2023-05-13T13:14:40;102192.84;;;22.96;29.20